»·PEaware :: N920DD KPRC-KRYN

N920DD :: KPRC-KRYN

FLIGHT INFORMATION

Flight Status: Arrived
Operator: Privately registered:
United States
More flights under this callsign
Pilot: Daniel O. (11975)
Aircraft: PILATUS PC-12 EAGLE
(PC12)
More flights by this aircraft type
Origin: KPRC Love
United States
Destination: KRYN Ryan
United States
More flights between these airports :: More routes between these airports
Route: +WNSKI2 WNSKI IWA
File this flight plan on PilotEdge
Remarks:
Altitude:
(Current/Filed)
15,000ft
Speed:
(Current/Filed)
200kts
Departed: 06-Nov-19 12:24 PM
Arrived: 06-Nov-19 01:07 PM
Distance/Time
Traveled:
163nm/0:43
Distance/Time
To Go:
Arrived

Flight Plot

Page will automatically refresh every two minutes.

Flight plan parsing failed; only flown route is shown


Map Options




Map Legend


Flown Route
Filed Route
Departure Airport
Arrival Airport
Navaid (VOR, NDB)
Fix

Horizontal Profiles

Position Reports

Time Latitude Longitude Heading Altitude Ground
Speed
06-Nov-19 12:09 34.646715 -112.424193 308 5026ft 0kts
06-Nov-19 12:10 34.646715 -112.424193 308 5026ft 0kts
06-Nov-19 12:11 34.646715 -112.424193 308 5026ft 0kts
06-Nov-19 12:12 34.646715 -112.424193 308 5026ft 0kts
06-Nov-19 12:13 34.646715 -112.424193 307 5026ft 0kts
06-Nov-19 12:14 34.646715 -112.424193 307 5026ft 0kts
06-Nov-19 12:15 34.646715 -112.424193 307 5026ft 0kts
06-Nov-19 12:16 34.646715 -112.424193 308 5026ft 0kts
06-Nov-19 12:17 34.646715 -112.424193 308 5026ft 0kts
06-Nov-19 12:18 34.646715 -112.424194 307 5026ft 0kts
06-Nov-19 12:19 34.647631 -112.425026 39 5025ft 17kts
06-Nov-19 12:20 34.645404 -112.420482 136 5042ft 23kts
06-Nov-19 12:21 34.643685 -112.418364 57 5061ft 0kts
06-Nov-19 12:22 34.643685 -112.418364 57 5061ft 0kts
06-Nov-19 12:23 34.645136 -112.419356 316 5049ft 45kts
06-Nov-19 12:24 34.668486 -112.440946 348 6183ft 148kts
06-Nov-19 12:25 34.676179 -112.397809 153 8730ft 183kts
06-Nov-19 12:26 34.631214 -112.380105 140 11239ft 177kts
06-Nov-19 12:27 34.598452 -112.336407 133 13340ft 179kts
06-Nov-19 12:28 34.565030 -112.289533 131 14951ft 198kts
06-Nov-19 12:29 34.522796 -112.244429 161 14975ft 245kts
06-Nov-19 12:30 34.457163 -112.211968 159 14988ft 264kts
06-Nov-19 12:31 34.389408 -112.178611 162 14948ft 267kts
06-Nov-19 12:32 34.322163 -112.145545 159 15051ft 266kts
06-Nov-19 12:33 34.264482 -112.117201 160 15537ft 249kts
06-Nov-19 12:34 34.203592 -112.087203 161 16635ft 234kts
06-Nov-19 12:35 34.141579 -112.056954 161 16779ft 257kts
06-Nov-19 12:36 34.075545 -112.024689 161 16764ft 263kts
06-Nov-19 12:37 34.009165 -111.992274 161 16993ft 258kts
06-Nov-19 12:38 33.943148 -111.960157 161 17002ft 263kts
06-Nov-19 12:39 33.878643 -111.928798 161 17005ft 263kts
06-Nov-19 12:40 33.813179 -111.897027 161 17005ft 264kts
06-Nov-19 12:41 33.747041 -111.864983 161 17005ft 264kts
06-Nov-19 12:42 33.680552 -111.832821 161 17005ft 264kts
06-Nov-19 12:43 33.613032 -111.800214 161 17004ft 263kts
06-Nov-19 12:44 33.545000 -111.767419 162 17004ft 263kts
06-Nov-19 12:45 33.477342 -111.734857 162 17004ft 263kts
06-Nov-19 12:46 33.410051 -111.702527 162 17004ft 262kts
06-Nov-19 12:47 33.343354 -111.670537 162 17003ft 262kts
06-Nov-19 12:48 33.275716 -111.639905 164 17004ft 261kts
06-Nov-19 12:49 33.208269 -111.611812 165 17004ft 261kts
06-Nov-19 12:50 33.140043 -111.583485 165 17003ft 260kts
06-Nov-19 12:52 33.071271 -111.554980 165 17004ft 260kts
06-Nov-19 12:53 33.002827 -111.526656 165 17003ft 260kts
06-Nov-19 12:54 32.934321 -111.498349 165 17030ft 258kts
06-Nov-19 12:55 32.866456 -111.470435 165 16131ft 256kts
06-Nov-19 12:56 32.799172 -111.442728 165 14983ft 256kts
06-Nov-19 12:57 32.731743 -111.415014 164 13812ft 258kts
06-Nov-19 12:58 32.663375 -111.386965 164 12489ft 260kts
06-Nov-19 12:59 32.594697 -111.358828 163 11171ft 260kts
06-Nov-19 13:00 32.526819 -111.331072 163 9883ft 258kts
06-Nov-19 13:01 32.458852 -111.303365 162 8601ft 256kts
06-Nov-19 13:02 32.391549 -111.275877 161 7350ft 256kts
06-Nov-19 13:03 32.323970 -111.248329 161 6122ft 257kts
06-Nov-19 13:04 32.258773 -111.213115 152 4913ft 257kts
06-Nov-19 13:05 32.201035 -111.175922 152 3699ft 229kts
06-Nov-19 13:06 32.152218 -111.148352 212 3102ft 134kts
06-Nov-19 13:07 32.141926 -111.173717 251 2404ft 31kts
06-Nov-19 13:08 32.139503 -111.173367 159 2404ft 0kts

Navigation Log

Ident Type
Flight plan parsing failed, navigation log unavailable